Ostrica, Louisiana
Current Conditions -  °F | °C
As of 4:51 PM on Thursday 27 Nov 2014 (Local Time) from KBVE Reporting Station
Clear Clear  
Wind Chill: 56°   Ceiling: Unl
Heat Index: 56°   Visibility: 10mi
Dew Point: 40°   Wind: 5mph
Humidity: 55%   Direction: NA
Pressure: 30.4"   Gusts: NA
Location:  29.2996°N, 89.4367°W
Report Text: KBVE 272251Z AUTO VRB04KT 10SM CLR 13/04 A3040 RMK AO2 SLP293 T01330044
Loading
Personal Weather Stations






























Interactive Weather Map New forecast layout! Learn more

10-Day Weather Forecast

Advertisements
Track Severe Weather on mobile